Time;durP1;ratioP1;P1;durP2;ratioP2;P2;SDS_P1;SDS_P2;PMS_P1;PMS_P2;Temp;Humidity;BMP_temperature;BMP_pressure;BME280_temperature;BME280_humidity;BME280_pressure;Samples;Min_cycle;Max_cycle;Signal;HPM_P1;HPM_P2
2023/01/16 00:01:12;;;;;;;;;;;4.60;99.90;;;;;;5153070;27;20380;-53
2023/01/16 00:03:37;;;;;;;;;;;4.60;99.90;;;;;;5157001;27;19914;-46
2023/01/16 00:06:03;;;;;;;;;;;4.50;99.90;;;;;;5157535;27;19907;-49
2023/01/16 00:08:28;;;;;;;;;;;4.40;99.90;;;;;;5158227;27;20354;-51
2023/01/16 00:10:54;;;;;;;;;;;4.40;99.90;;;;;;5158189;27;19913;-49
2023/01/16 00:13:19;;;;;;;;;;;4.30;99.90;;;;;;5155460;27;19922;-49
2023/01/16 00:15:46;;;;;;;;;;;4.20;99.90;;;;;;5127258;27;19914;-51
2023/01/16 00:18:11;;;;;;;;;;;4.10;99.90;;;;;;5128862;27;20377;-51
2023/01/16 00:20:37;;;;;;;;;;;4.10;99.90;;;;;;5136583;27;19907;-46
2023/01/16 00:23:02;;;;;;;;;;;4.00;99.90;;;;;;5128437;27;19907;-46
2023/01/16 00:25:28;;;;;;;;;;;4.00;99.90;;;;;;5116694;28;20007;-54
2023/01/16 00:27:53;;;;;;;;;;;3.90;99.90;;;;;;5115767;28;19935;-54
2023/01/16 00:30:19;;;;;;;;;;;3.90;99.90;;;;;;5116522;28;19911;-54
2023/01/16 00:32:44;;;;;;;;;;;3.80;99.90;;;;;;5120868;27;19915;-54
2023/01/16 00:35:10;;;;;;;;;;;3.90;99.90;;;;;;5136213;27;20002;-53
2023/01/16 00:37:35;;;;;;;;;;;3.90;99.90;;;;;;5136961;27;19908;-52
2023/01/16 00:40:01;;;;;;;;;;;3.90;99.90;;;;;;5136884;27;19912;-50
2023/01/16 00:42:26;;;;;;;;;;;3.90;99.90;;;;;;5136066;27;20388;-49
2023/01/16 00:44:52;;;;;;;;;;;4.00;99.90;;;;;;5136747;27;19912;-53
2023/01/16 00:47:17;;;;;;;;;;;4.00;99.90;;;;;;5136787;27;19907;-49
2023/01/16 00:49:43;;;;;;;;;;;4.10;99.90;;;;;;5136001;27;19908;-50
2023/01/16 00:52:08;;;;;;;;;;;4.10;99.90;;;;;;5126716;27;19939;-53
2023/01/16 00:54:34;;;;;;;;;;;4.10;99.90;;;;;;5115838;28;20007;-47
2023/01/16 00:56:59;;;;;;;;;;;4.20;99.90;;;;;;5115332;28;20372;-47
2023/01/16 00:59:25;;;;;;;;;;;4.20;99.90;;;;;;5115886;28;19941;-52
2023/01/16 01:01:50;;;;;;;;;;;4.10;99.90;;;;;;5115841;28;20351;-49
2023/01/16 01:04:16;;;;;;;;;;;4.10;99.90;;;;;;5123132;27;19911;-47
2023/01/16 01:06:42;;;;;;;;;;;4.10;99.90;;;;;;5136307;27;19977;-55
2023/01/16 01:09:07;;;;;;;;;;;4.10;99.90;;;;;;5124830;27;20002;-54
2023/01/16 01:11:33;;;;;;;;;;;4.10;99.90;;;;;;5115128;28;19908;-53
2023/01/16 01:13:58;;;;;;;;;;;4.10;99.90;;;;;;5115214;28;20015;-53
2023/01/16 01:16:24;;;;;;;;;;;4.10;99.90;;;;;;5114920;28;19908;-53
2023/01/16 01:18:50;;;;;;;;;;;4.00;99.90;;;;;;5133115;27;19958;-46
2023/01/16 01:21:15;;;;;;;;;;;4.00;99.90;;;;;;5136162;27;19911;-47
2023/01/16 01:23:41;;;;;;;;;;;4.00;99.90;;;;;;5135303;27;20259;-48
2023/01/16 01:26:07;;;;;;;;;;;4.00;99.90;;;;;;5136270;27;20282;-46
2023/01/16 01:28:33;;;;;;;;;;;3.90;99.90;;;;;;5135869;27;19911;-47
2023/01/16 01:31:01;;;;;;;;;;;4.00;99.90;;;;;;5135046;27;19912;-48
2023/01/16 01:33:26;;;;;;;;;;;4.00;99.90;;;;;;5115143;28;19988;-47
2023/01/16 01:35:52;;;;;;;;;;;4.00;99.90;;;;;;5115258;28;19916;-46
2023/01/16 01:38:17;;;;;;;;;;;4.00;99.90;;;;;;5114278;28;19923;-52
2023/01/16 01:40:43;;;;;;;;;;;4.10;99.90;;;;;;5115123;28;20267;-48
2023/01/16 01:43:12;;;;;;;;;;;4.10;99.90;;;;;;5115061;28;20030;-49
2023/01/16 01:45:38;;;;;;;;;;;4.20;99.90;;;;;;5114314;28;19908;-54
2023/01/16 01:48:18;;;;;;;;;;;4.20;99.90;;;;;;5114958;28;19908;-53
2023/01/16 01:50:53;;;;;;;;;;;4.20;99.90;;;;;;5115181;28;19922;-51
2023/01/16 01:53:23;;;;;;;;;;;4.30;99.90;;;;;;5114091;28;19907;-54
2023/01/16 01:55:49;;;;;;;;;;;4.20;99.90;;;;;;5114484;28;19973;-54
2023/01/16 01:58:20;;;;;;;;;;;4.30;99.90;;;;;;5114735;28;19916;-50
2023/01/16 02:00:46;;;;;;;;;;;4.40;99.90;;;;;;5113937;28;19908;-47
2023/01/16 02:03:16;;;;;;;;;;;4.40;99.90;;;;;;5114674;28;19930;-54
2023/01/16 02:05:49;;;;;;;;;;;4.50;99.90;;;;;;5131715;27;19911;-55
2023/01/16 02:08:16;;;;;;;;;;;4.50;99.90;;;;;;5135122;27;19907;-53
2023/01/16 02:10:44;;;;;;;;;;;4.60;99.90;;;;;;5135160;27;19970;-48
2023/01/16 02:13:10;;;;;;;;;;;4.60;99.90;;;;;;5134235;27;19915;-49
2023/01/16 02:19:14;;;;;;;;;;;4.70;99.90;;;;;;5135086;27;20277;-52
2023/01/16 02:21:17;;;;;;;;;;;4.70;99.90;;;;;;5134417;27;19918;-48
2023/01/16 02:24:02;;;;;;;;;;;4.80;99.90;;;;;;5134979;27;19994;-49
2023/01/16 02:26:48;;;;;;;;;;;4.80;99.90;;;;;;5122830;27;19954;-51
2023/01/16 02:29:19;;;;;;;;;;;4.80;99.90;;;;;;5102311;27;20006;-49
2023/01/16 02:32:07;;;;;;;;;;;4.80;99.90;;;;;;5134874;27;19908;-46
2023/01/16 02:35:00;;;;;;;;;;;4.90;99.90;;;;;;5134017;27;19911;-48
2023/01/16 02:37:32;;;;;;;;;;;4.80;99.90;;;;;;5134583;27;20430;-46
2023/01/16 02:40:18;;;;;;;;;;;4.80;99.90;;;;;;5134475;27;19929;-48
2023/01/16 02:42:58;;;;;;;;;;;4.90;99.90;;;;;;5101352;27;19918;-49
2023/01/16 02:45:29;;;;;;;;;;;4.90;99.90;;;;;;5134450;27;19908;-47
2023/01/16 02:47:58;;;;;;;;;;;4.80;99.90;;;;;;5133572;27;19915;-47
2023/01/16 02:50:30;;;;;;;;;;;4.80;99.90;;;;;;5134390;27;19939;-49
2023/01/16 02:53:28;;;;;;;;;;;4.80;99.90;;;;;;5134228;27;19914;-47
2023/01/16 02:55:57;;;;;;;;;;;4.80;99.90;;;;;;5085808;27;20358;-48
2023/01/16 02:58:23;;;;;;;;;;;4.80;99.90;;;;;;5134137;27;19945;-51
2023/01/16 03:00:53;;;;;;;;;;;4.80;99.90;;;;;;5124538;27;19907;-47
2023/01/16 03:03:31;;;;;;;;;;;4.80;99.90;;;;;;5123163;27;19964;-48
2023/01/16 03:05:59;;;;;;;;;;;4.70;99.90;;;;;;5116768;27;20011;-46
2023/01/16 03:08:40;;;;;;;;;;;4.70;99.90;;;;;;5128822;27;19953;-47
2023/01/16 03:11:21;;;;;;;;;;;4.60;99.90;;;;;;5133287;27;19912;-45
2023/01/16 03:13:51;;;;;;;;;;;4.50;99.90;;;;;;5134020;27;19908;-48
2023/01/16 03:16:29;;;;;;;;;;;4.40;99.90;;;;;;5133267;27;19907;-47
2023/01/16 03:19:01;;;;;;;;;;;4.30;99.90;;;;;;5133762;27;19931;-46
2023/01/16 03:21:35;;;;;;;;;;;4.30;99.90;;;;;;5125329;27;20341;-46
2023/01/16 03:24:27;;;;;;;;;;;4.20;99.90;;;;;;5132772;27;19998;-47
2023/01/16 03:26:57;;;;;;;;;;;4.10;99.90;;;;;;5101797;27;19911;-49
2023/01/16 03:29:29;;;;;;;;;;;4.10;99.90;;;;;;5133805;27;20331;-51
2023/01/16 03:31:54;;;;;;;;;;;4.10;99.90;;;;;;5132943;27;19942;-47
2023/01/16 03:34:25;;;;;;;;;;;4.10;99.90;;;;;;5133664;27;20297;-46
2023/01/16 03:37:09;;;;;;;;;;;4.20;99.90;;;;;;5133668;27;19929;-47
2023/01/16 03:39:37;;;;;;;;;;;4.20;99.90;;;;;;5133621;28;19915;-50
2023/01/16 03:42:05;;;;;;;;;;;4.30;99.90;;;;;;5133507;28;19907;-49
2023/01/16 03:44:34;;;;;;;;;;;4.40;99.90;;;;;;5132881;28;19908;-50
2023/01/16 03:47:00;;;;;;;;;;;4.40;99.90;;;;;;5133638;28;20010;-49
2023/01/16 03:49:31;;;;;;;;;;;4.40;99.90;;;;;;5133669;28;19951;-52
2023/01/16 03:52:00;;;;;;;;;;;4.40;99.90;;;;;;5132793;28;19990;-54
2023/01/16 03:54:44;;;;;;;;;;;4.50;99.90;;;;;;5153664;27;20400;-53
2023/01/16 03:57:14;;;;;;;;;;;4.50;99.90;;;;;;5154509;27;19953;-51
2023/01/16 03:59:42;;;;;;;;;;;4.50;99.90;;;;;;5153410;27;19918;-49
2023/01/16 04:02:25;;;;;;;;;;;4.60;99.90;;;;;;5154119;27;20075;-51
2023/01/16 04:05:07;;;;;;;;;;;4.70;99.90;;;;;;5154185;27;19907;-47
2023/01/16 04:07:37;;;;;;;;;;;4.70;99.90;;;;;;5154163;27;20539;-52
2023/01/16 04:10:08;;;;;;;;;;;4.70;99.90;;;;;;5154042;27;20325;-52
2023/01/16 04:12:37;;;;;;;;;;;4.80;99.90;;;;;;5153351;27;20362;-52
2023/01/16 04:15:04;;;;;;;;;;;4.80;99.90;;;;;;5153916;27;20006;-54
2023/01/16 04:17:30;;;;;;;;;;;4.70;99.90;;;;;;5146982;27;19908;-52
2023/01/16 04:19:56;;;;;;;;;;;4.80;99.90;;;;;;5132491;28;19916;-49
2023/01/16 04:22:25;;;;;;;;;;;4.80;99.90;;;;;;5133321;28;19907;-46
2023/01/16 04:24:52;;;;;;;;;;;4.80;99.90;;;;;;5133232;28;19965;-47
2023/01/16 04:27:18;;;;;;;;;;;4.80;99.90;;;;;;5132583;28;19960;-52
2023/01/16 04:29:44;;;;;;;;;;;4.80;99.90;;;;;;5133327;28;19908;-53
2023/01/16 04:32:09;;;;;;;;;;;4.80;99.90;;;;;;5133066;28;19907;-47
2023/01/16 04:34:35;;;;;;;;;;;4.80;99.90;;;;;;5132441;28;19990;-48
2023/01/16 04:37:00;;;;;;;;;;;4.90;99.90;;;;;;5132998;28;19908;-47
2023/01/16 04:39:26;;;;;;;;;;;4.80;99.90;;;;;;5133127;28;19919;-48
2023/01/16 04:41:51;;;;;;;;;;;4.90;99.90;;;;;;5132382;28;19907;-47
2023/01/16 04:44:17;;;;;;;;;;;4.90;99.90;;;;;;5133092;28;19914;-48
2023/01/16 04:46:42;;;;;;;;;;;4.90;99.90;;;;;;5133029;28;19912;-47
2023/01/16 04:49:08;;;;;;;;;;;4.90;99.90;;;;;;5134055;27;19913;-49
2023/01/16 04:51:34;;;;;;;;;;;4.90;99.90;;;;;;5136787;27;20247;-49
2023/01/16 04:54:00;;;;;;;;;;;4.90;99.90;;;;;;5136732;27;19966;-49
2023/01/16 04:56:25;;;;;;;;;;;4.90;99.90;;;;;;5135643;27;19958;-47
2023/01/16 04:58:52;;;;;;;;;;;4.90;99.90;;;;;;5136467;27;19915;-54
2023/01/16 05:01:18;;;;;;;;;;;4.90;99.90;;;;;;5136405;27;19907;-49
2023/01/16 05:03:43;;;;;;;;;;;4.90;99.90;;;;;;5135978;27;20353;-50
2023/01/16 05:06:09;;;;;;;;;;;4.90;99.90;;;;;;5136426;27;20281;-54
2023/01/16 05:08:34;;;;;;;;;;;4.90;99.90;;;;;;5135710;27;20069;-53
2023/01/16 05:11:01;;;;;;;;;;;4.90;99.90;;;;;;5136320;27;19915;-52
2023/01/16 05:13:29;;;;;;;;;;;4.90;99.90;;;;;;5136397;27;19907;-48
2023/01/16 05:15:55;;;;;;;;;;;4.80;99.90;;;;;;5135353;27;19908;-51
2023/01/16 05:18:21;;;;;;;;;;;4.80;99.90;;;;;;5136181;27;19923;-49
2023/01/16 05:20:47;;;;;;;;;;;4.70;99.90;;;;;;5136168;27;19914;-47
2023/01/16 05:23:12;;;;;;;;;;;4.70;99.90;;;;;;5135518;27;19908;-48
2023/01/16 05:25:38;;;;;;;;;;;4.70;99.90;;;;;;5136085;27;20007;-47
2023/01/16 05:28:04;;;;;;;;;;;4.70;99.90;;;;;;5135931;27;19907;-55
2023/01/16 05:30:29;;;;;;;;;;;4.70;99.90;;;;;;5135145;27;19907;-48
2023/01/16 05:32:55;;;;;;;;;;;4.70;99.90;;;;;;5135864;27;19911;-47
2023/01/16 05:35:21;;;;;;;;;;;4.70;99.90;;;;;;5135870;27;20392;-46
2023/01/16 05:37:46;;;;;;;;;;;4.70;99.90;;;;;;5135022;27;19938;-47
2023/01/16 05:40:12;;;;;;;;;;;4.60;99.90;;;;;;5135669;27;20270;-46
2023/01/16 05:42:37;;;;;;;;;;;4.60;99.90;;;;;;5135702;27;19908;-45
2023/01/16 05:45:03;;;;;;;;;;;4.50;99.90;;;;;;5134793;27;19955;-45
2023/01/16 05:47:28;;;;;;;;;;;4.40;99.90;;;;;;5135690;27;19914;-46
2023/01/16 05:49:58;;;;;;;;;;;4.40;99.90;;;;;;5135557;27;19951;-45
2023/01/16 05:52:24;;;;;;;;;;;4.30;99.90;;;;;;5134906;27;19918;-46
2023/01/16 05:54:51;;;;;;;;;;;4.20;99.90;;;;;;5135139;27;19919;-48
2023/01/16 05:57:16;;;;;;;;;;;4.20;99.90;;;;;;5135407;27;19914;-46
2023/01/16 05:59:45;;;;;;;;;;;4.20;99.90;;;;;;5133771;27;19919;-47
2023/01/16 06:02:11;;;;;;;;;;;4.20;99.90;;;;;;5134978;27;20287;-48
2023/01/16 06:04:36;;;;;;;;;;;4.20;99.90;;;;;;5135122;27;19908;-48
2023/01/16 06:07:02;;;;;;;;;;;4.20;99.90;;;;;;5134777;27;19915;-48
2023/01/16 06:09:27;;;;;;;;;;;4.20;99.90;;;;;;5135319;27;19907;-46
2023/01/16 06:11:53;;;;;;;;;;;4.20;99.90;;;;;;5134415;27;19979;-47
2023/01/16 06:14:18;;;;;;;;;;;4.20;99.90;;;;;;5135118;27;19911;-47
2023/01/16 06:16:44;;;;;;;;;;;4.10;99.90;;;;;;5134728;27;19907;-46
2023/01/16 06:19:09;;;;;;;;;;;4.10;99.90;;;;;;5131976;27;20423;-49
2023/01/16 06:21:35;;;;;;;;;;;4.00;99.90;;;;;;5134942;27;19927;-46
2023/01/16 06:24:01;;;;;;;;;;;4.00;99.90;;;;;;5134913;27;20019;-46
2023/01/16 06:26:26;;;;;;;;;;;4.00;99.90;;;;;;5134082;27;20421;-47
2023/01/16 06:28:52;;;;;;;;;;;3.90;99.90;;;;;;5134932;27;19912;-50
2023/01/16 06:31:17;;;;;;;;;;;3.90;99.90;;;;;;5134743;27;19911;-46
2023/01/16 06:33:43;;;;;;;;;;;3.90;99.90;;;;;;5134048;27;20285;-46
2023/01/16 06:36:08;;;;;;;;;;;3.90;99.90;;;;;;5134630;27;19911;-45
2023/01/16 06:38:34;;;;;;;;;;;3.90;99.90;;;;;;5134746;27;19960;-47
2023/01/16 06:40:59;;;;;;;;;;;3.90;99.90;;;;;;5133804;27;19949;-47
2023/01/16 06:43:25;;;;;;;;;;;3.90;99.90;;;;;;5134479;27;20363;-46
2023/01/16 06:45:51;;;;;;;;;;;3.90;99.90;;;;;;5134432;27;19914;-48
2023/01/16 06:48:17;;;;;;;;;;;3.90;99.90;;;;;;5133818;27;19907;-46
2023/01/16 06:50:43;;;;;;;;;;;3.80;99.90;;;;;;5129600;27;19911;-48
2023/01/16 06:53:08;;;;;;;;;;;3.80;99.90;;;;;;5127608;27;19958;-47
2023/01/16 06:55:34;;;;;;;;;;;3.80;99.90;;;;;;5112306;28;20019;-50
2023/01/16 06:57:59;;;;;;;;;;;3.80;99.90;;;;;;5113610;28;19908;-55
2023/01/16 07:00:25;;;;;;;;;;;3.70;99.90;;;;;;5117861;27;19911;-46
2023/01/16 07:02:51;;;;;;;;;;;3.70;99.90;;;;;;5130314;27;19918;-47
2023/01/16 07:05:17;;;;;;;;;;;3.70;99.90;;;;;;5126896;27;19911;-47
2023/01/16 07:07:42;;;;;;;;;;;3.70;99.90;;;;;;5136746;27;19911;-54
2023/01/16 07:10:08;;;;;;;;;;;3.70;99.90;;;;;;5133273;27;19907;-46
2023/01/16 07:12:33;;;;;;;;;;;3.70;99.90;;;;;;5133013;27;19912;-55
2023/01/16 07:23:22;;;;;;;;;;;3.70;99.90;;;;;;5133409;27;19919;-46
2023/01/16 07:25:47;;;;;;;;;;;3.70;99.90;;;;;;5137489;27;19911;-52
2023/01/16 07:28:13;;;;;;;;;;;3.70;99.90;;;;;;5134939;27;19922;-55
2023/01/16 07:30:39;;;;;;;;;;;3.70;99.90;;;;;;5134176;27;19955;-47
2023/01/16 07:33:04;;;;;;;;;;;3.70;99.90;;;;;;5133689;27;19907;-54
2023/01/16 07:35:30;;;;;;;;;;;3.60;99.90;;;;;;5132954;27;19911;-47
2023/01/16 07:37:56;;;;;;;;;;;3.70;99.90;;;;;;5132917;27;19950;-52
2023/01/16 07:40:22;;;;;;;;;;;3.60;99.90;;;;;;5124907;27;20381;-51
2023/01/16 07:42:49;;;;;;;;;;;3.70;99.90;;;;;;5113703;28;19986;-46
2023/01/16 07:45:14;;;;;;;;;;;3.70;99.90;;;;;;5117212;28;19970;-51
2023/01/16 07:47:40;;;;;;;;;;;3.70;99.90;;;;;;5128025;27;20464;-56
2023/01/16 07:50:05;;;;;;;;;;;3.70;99.90;;;;;;5142668;27;19907;-48
2023/01/16 07:52:31;;;;;;;;;;;3.70;99.90;;;;;;5140698;27;19915;-47
2023/01/16 07:54:56;;;;;;;;;;;3.70;99.90;;;;;;5141255;27;19919;-53
2023/01/16 07:57:22;;;;;;;;;;;3.70;99.90;;;;;;5142008;27;19911;-55
2023/01/16 07:59:47;;;;;;;;;;;3.70;99.90;;;;;;5140834;27;19923;-48
2023/01/16 08:02:13;;;;;;;;;;;3.70;99.90;;;;;;5138758;27;19922;-54
2023/01/16 08:04:38;;;;;;;;;;;3.70;99.90;;;;;;5135570;27;20317;-47
2023/01/16 08:07:04;;;;;;;;;;;3.70;99.90;;;;;;5133148;28;19915;-54
2023/01/16 08:09:29;;;;;;;;;;;3.70;99.90;;;;;;5133515;28;19907;-54
2023/01/16 08:11:55;;;;;;;;;;;3.70;99.90;;;;;;5131513;28;20274;-54
2023/01/16 08:14:20;;;;;;;;;;;3.70;99.90;;;;;;5133404;28;20010;-55
2023/01/16 08:16:46;;;;;;;;;;;3.80;99.90;;;;;;5133245;28;19908;-49
2023/01/16 08:19:11;;;;;;;;;;;3.80;99.90;;;;;;5132187;28;20274;-55
2023/01/16 08:21:37;;;;;;;;;;;3.80;99.90;;;;;;5133262;28;19908;-55
2023/01/16 08:24:02;;;;;;;;;;;3.80;99.90;;;;;;5134549;27;19908;-46
2023/01/16 08:26:28;;;;;;;;;;;3.80;99.90;;;;;;5136521;27;19912;-52
2023/01/16 08:28:54;;;;;;;;;;;3.90;99.90;;;;;;5137051;27;19955;-54
2023/01/16 08:31:20;;;;;;;;;;;3.90;99.90;;;;;;5136867;27;19959;-52
2023/01/16 08:33:46;;;;;;;;;;;4.00;99.90;;;;;;5136247;27;19914;-53
2023/01/16 08:36:12;;;;;;;;;;;4.00;99.90;;;;;;5136801;27;19908;-52
2023/01/16 08:38:38;;;;;;;;;;;4.00;99.90;;;;;;5136900;27;19956;-50
2023/01/16 08:41:04;;;;;;;;;;;4.00;99.90;;;;;;5136073;27;19919;-52
2023/01/16 08:51:48;;;;;;;;;;;4.20;99.90;;;;;;5127447;27;19937;-52
2023/01/16 08:54:13;;;;;;;;;;;4.20;99.90;;;;;;5114952;27;19915;-53
2023/01/16 08:56:42;;;;;;;;;;;4.20;99.90;;;;;;5136240;27;19908;-54
2023/01/16 08:59:10;;;;;;;;;;;4.30;99.90;;;;;;5134490;27;19923;-52
2023/01/16 09:01:36;;;;;;;;;;;4.30;99.90;;;;;;5135300;27;20273;-54
2023/01/16 09:04:04;;;;;;;;;;;4.40;99.90;;;;;;5129270;27;20319;-54
2023/01/16 09:06:30;;;;;;;;;;;4.40;99.90;;;;;;5127294;27;19962;-52
2023/01/16 09:08:55;;;;;;;;;;;4.40;99.90;;;;;;5114849;28;20366;-53
2023/01/16 09:14:05;;;;;;;;;;;4.50;99.90;;;;;;5115929;28;20000;-49
2023/01/16 09:16:30;;;;;;;;;;;4.50;99.90;;;;;;5114436;28;19962;-51
2023/01/16 09:18:56;;;;;;;;;;;4.50;99.90;;;;;;5115396;28;19919;-49
2023/01/16 09:21:24;;;;;;;;;;;4.60;99.90;;;;;;5115420;28;19908;-51
2023/01/16 09:23:50;;;;;;;;;;;4.60;99.90;;;;;;5114577;28;19945;-52
2023/01/16 09:26:16;;;;;;;;;;;4.60;99.90;;;;;;5119569;27;19918;-51
2023/01/16 09:28:42;;;;;;;;;;;4.60;99.90;;;;;;5136642;27;19911;-49
2023/01/16 09:31:07;;;;;;;;;;;4.60;99.90;;;;;;5135765;27;20380;-50
2023/01/16 09:33:32;;;;;;;;;;;4.60;99.90;;;;;;5135943;27;19933;-51
2023/01/16 09:35:58;;;;;;;;;;;4.60;99.90;;;;;;5145887;27;20256;-54
2023/01/16 09:38:23;;;;;;;;;;;4.60;99.90;;;;;;5145645;27;20017;-52
2023/01/16 09:40:52;;;;;;;;;;;4.70;99.90;;;;;;5143581;27;19912;-55
2023/01/16 09:43:37;;;;;;;;;;;4.60;99.90;;;;;;5144161;27;19908;-50
2023/01/16 09:46:23;;;;;;;;;;;4.60;99.90;;;;;;5135035;27;19911;-48
2023/01/16 09:48:49;;;;;;;;;;;4.70;99.90;;;;;;5134466;27;20251;-47
2023/01/16 09:51:17;;;;;;;;;;;4.70;99.90;;;;;;5133869;27;19953;-52
2023/01/16 09:59:37;;;;;;;;;;;4.70;99.90;;;;;;5122474;27;19964;-54
2023/01/16 10:02:12;;;;;;;;;;;4.70;99.90;;;;;;5123298;27;19958;-53
2023/01/16 10:04:37;;;;;;;;;;;4.70;99.90;;;;;;5116325;27;20308;-51
2023/01/16 10:07:03;;;;;;;;;;;4.70;99.90;;;;;;5114053;28;19914;-55
2023/01/16 10:09:53;;;;;;;;;;;4.80;99.90;;;;;;5119992;27;19914;-53
2023/01/16 10:12:21;;;;;;;;;;;4.80;99.90;;;;;;5131213;27;19951;-52
2023/01/16 10:14:54;;;;;;;;;;;4.80;99.90;;;;;;5131499;27;19911;-50
2023/01/16 10:17:36;;;;;;;;;;;4.80;99.90;;;;;;5130093;27;19927;-47
2023/01/16 10:20:17;;;;;;;;;;;4.80;99.90;;;;;;5111803;28;19916;-53
2023/01/16 10:22:42;;;;;;;;;;;4.80;99.90;;;;;;5124038;27;19994;-55
2023/01/16 10:25:08;;;;;;;;;;;4.80;99.90;;;;;;5131390;27;20010;-52
2023/01/16 10:27:34;;;;;;;;;;;4.80;99.90;;;;;;5132864;27;19982;-52
2023/01/16 10:30:03;;;;;;;;;;;4.70;99.90;;;;;;5133122;27;19908;-50
2023/01/16 10:32:37;;;;;;;;;;;4.70;99.90;;;;;;5133027;27;19911;-53
2023/01/16 10:35:12;;;;;;;;;;;4.80;99.90;;;;;;5133259;27;19952;-53
2023/01/16 10:37:38;;;;;;;;;;;4.70;99.90;;;;;;5133197;27;20013;-51
2023/01/16 10:40:10;;;;;;;;;;;4.70;99.90;;;;;;5132055;27;19919;-51
2023/01/16 10:50:57;;;;;;;;;;;4.60;99.90;;;;;;5133018;27;20293;-52
2023/01/16 10:53:22;;;;;;;;;;;4.60;99.90;;;;;;5131768;27;20010;-54
2023/01/16 10:55:51;;;;;;;;;;;4.60;99.90;;;;;;5132881;27;20019;-54
2023/01/16 10:58:36;;;;;;;;;;;4.50;99.90;;;;;;5128809;27;19980;-55
2023/01/16 11:01:03;;;;;;;;;;;4.60;99.90;;;;;;5132306;27;19918;-52
2023/01/16 11:03:33;;;;;;;;;;;4.60;99.90;;;;;;5132955;27;19911;-55
2023/01/16 11:06:10;;;;;;;;;;;4.60;99.90;;;;;;5131811;27;19911;-52
2023/01/16 11:08:35;;;;;;;;;;;4.60;99.90;;;;;;5111216;28;19919;-52
2023/01/16 11:11:01;;;;;;;;;;;4.60;99.90;;;;;;5111088;28;19986;-53
2023/01/16 11:18:56;;;;;;;;;;;4.70;99.90;;;;;;5116457;27;19927;-53
2023/01/16 11:21:27;;;;;;;;;;;4.70;99.90;;;;;;5118976;27;19950;-54
2023/01/16 11:24:14;;;;;;;;;;;4.70;99.90;;;;;;5132971;27;20003;-54
2023/01/16 11:26:50;;;;;;;;;;;4.70;99.90;;;;;;5130043;27;19919;-53
2023/01/16 11:29:17;;;;;;;;;;;4.70;99.90;;;;;;5118793;27;19916;-54
2023/01/16 11:31:47;;;;;;;;;;;4.70;99.90;;;;;;5130700;27;19911;-49
2023/01/16 11:34:14;;;;;;;;;;;4.70;99.90;;;;;;5111561;28;20408;-54
2023/01/16 11:36:40;;;;;;;;;;;4.70;99.90;;;;;;5113873;28;20587;-46
2023/01/16 11:39:06;;;;;;;;;;;4.70;99.90;;;;;;5132796;27;19943;-48
2023/01/16 11:41:36;;;;;;;;;;;4.70;99.90;;;;;;5132506;27;19911;-47
2023/01/16 11:47:10;;;;;;;;;;;4.70;99.90;;;;;;5130527;28;19918;-46
2023/01/16 11:49:38;;;;;;;;;;;4.70;99.90;;;;;;5132017;27;20319;-50
2023/01/16 11:52:03;;;;;;;;;;;4.70;99.90;;;;;;5143285;27;19939;-51
2023/01/16 11:54:33;;;;;;;;;;;4.70;99.90;;;;;;5131813;28;19958;-50
2023/01/16 11:57:05;;;;;;;;;;;4.80;99.90;;;;;;5131095;28;19915;-53
2023/01/16 11:59:33;;;;;;;;;;;4.80;99.90;;;;;;5136888;27;19915;-46
2023/01/16 12:02:25;;;;;;;;;;;4.80;99.90;;;;;;5137788;27;19920;-47
2023/01/16 12:07:57;;;;;;;;;;;4.80;99.90;;;;;;5137350;27;19953;-46
2023/01/16 12:10:41;;;;;;;;;;;4.90;99.90;;;;;;5133636;27;19980;-49
2023/01/16 12:16:11;;;;;;;;;;;4.90;99.90;;;;;;5136295;27;19958;-46
2023/01/16 12:18:36;;;;;;;;;;;5.00;99.90;;;;;;5133571;27;19916;-46
2023/01/16 12:21:03;;;;;;;;;;;5.00;99.90;;;;;;5135127;27;20056;-45
2023/01/16 12:23:45;;;;;;;;;;;5.00;99.90;;;;;;5143717;27;19911;-47
2023/01/16 12:26:13;;;;;;;;;;;5.00;99.90;;;;;;5142241;27;19907;-44
2023/01/16 12:28:54;;;;;;;;;;;5.00;99.90;;;;;;5153734;27;19911;-49
2023/01/16 12:31:36;;;;;;;;;;;5.00;99.90;;;;;;5156518;27;19964;-46
2023/01/16 12:34:16;;;;;;;;;;;5.10;99.90;;;;;;5157260;27;19907;-46
2023/01/16 12:37:06;;;;;;;;;;;5.10;99.90;;;;;;5157021;27;20056;-43
2023/01/16 12:39:40;;;;;;;;;;;5.20;99.90;;;;;;5155836;27;19968;-44
2023/01/16 12:45:22;;;;;;;;;;;5.10;99.90;;;;;;5157227;27;19914;-44
2023/01/16 12:47:50;;;;;;;;;;;5.10;99.90;;;;;;5155732;27;19957;-45
2023/01/16 12:50:29;;;;;;;;;;;5.10;99.90;;;;;;5156665;27;20354;-45
2023/01/16 12:53:12;;;;;;;;;;;5.10;99.90;;;;;;5156275;27;20366;-44
2023/01/16 12:56:07;;;;;;;;;;;5.10;99.90;;;;;;5156216;27;19919;-46
2023/01/16 12:58:35;;;;;;;;;;;5.10;99.90;;;;;;5133579;27;19926;-44
2023/01/16 13:01:16;;;;;;;;;;;5.10;99.90;;;;;;5141223;27;19918;-45
2023/01/16 13:03:50;;;;;;;;;;;5.10;99.90;;;;;;5126397;27;19919;-46
2023/01/16 13:06:20;;;;;;;;;;;5.10;99.90;;;;;;5115453;28;19994;-45
2023/01/16 13:08:53;;;;;;;;;;;5.10;99.90;;;;;;5132061;27;19916;-44
2023/01/16 13:14:10;;;;;;;;;;;5.20;99.90;;;;;;5134944;27;19915;-44
2023/01/16 13:17:05;;;;;;;;;;;5.20;99.90;;;;;;5135342;27;19946;-44
2023/01/16 13:19:32;;;;;;;;;;;5.20;99.90;;;;;;5121184;27;20010;-46
2023/01/16 13:22:03;;;;;;;;;;;5.10;99.90;;;;;;5135084;27;19961;-44
2023/01/16 13:24:32;;;;;;;;;;;5.20;99.90;;;;;;5135559;27;20263;-43
2023/01/16 13:27:00;;;;;;;;;;;5.20;99.90;;;;;;5131756;27;19918;-44
2023/01/16 13:29:32;;;;;;;;;;;5.30;99.90;;;;;;5121952;27;19908;-44
2023/01/16 13:31:59;;;;;;;;;;;5.20;99.90;;;;;;5135574;27;19907;-45
2023/01/16 13:34:29;;;;;;;;;;;5.30;99.90;;;;;;5135173;27;19912;-43
2023/01/16 13:37:04;;;;;;;;;;;5.30;99.90;;;;;;5134585;27;19918;-44
2023/01/16 13:39:32;;;;;;;;;;;5.30;99.90;;;;;;5134864;27;19919;-46
2023/01/16 13:41:58;;;;;;;;;;;5.40;99.90;;;;;;5134206;27;19912;-44
2023/01/16 13:47:12;;;;;;;;;;;5.40;99.90;;;;;;5122883;27;19964;-44
2023/01/16 13:49:38;;;;;;;;;;;5.40;99.90;;;;;;5116446;27;20077;-44
2023/01/16 13:52:04;;;;;;;;;;;5.40;99.90;;;;;;5134428;27;19911;-44
2023/01/16 13:54:29;;;;;;;;;;;5.40;99.90;;;;;;5132515;27;19938;-43
2023/01/16 13:56:55;;;;;;;;;;;5.50;99.90;;;;;;5116148;27;19965;-45
2023/01/16 13:59:28;;;;;;;;;;;5.50;99.90;;;;;;5119990;27;19924;-45
2023/01/16 14:01:56;;;;;;;;;;;5.50;99.90;;;;;;5125815;27;19934;-44
2023/01/16 14:04:23;;;;;;;;;;;5.40;99.90;;;;;;5133724;27;19912;-45
2023/01/16 14:06:50;;;;;;;;;;;5.40;99.90;;;;;;5134227;27;19908;-44
2023/01/16 14:09:18;;;;;;;;;;;5.40;99.90;;;;;;5134423;27;19907;-43
2023/01/16 14:12:02;;;;;;;;;;;5.40;99.90;;;;;;5133855;27;19907;-45
2023/01/16 14:17:49;;;;;;;;;;;5.40;99.90;;;;;;5133554;27;19914;-44
2023/01/16 14:20:36;;;;;;;;;;;5.40;99.90;;;;;;5113632;27;19924;-44
2023/01/16 14:25:49;;;;;;;;;;;5.40;99.90;;;;;;5112934;28;20003;-44
2023/01/16 14:28:16;;;;;;;;;;;5.40;99.90;;;;;;5113584;28;19964;-44
2023/01/16 14:30:42;;;;;;;;;;;5.40;99.90;;;;;;5113395;28;19930;-43
2023/01/16 14:33:14;;;;;;;;;;;5.40;99.90;;;;;;5144819;27;19949;-45
2023/01/16 14:35:46;;;;;;;;;;;5.40;99.90;;;;;;5154629;27;19907;-45
2023/01/16 14:38:15;;;;;;;;;;;5.40;99.90;;;;;;5153836;27;19914;-46
2023/01/16 14:57:37;;;;;;;;;;;5.40;99.90;;;;;;5118850;27;19915;-44
2023/01/16 15:00:09;;;;;;;;;;;5.30;99.90;;;;;;5111916;28;19916;-46
2023/01/16 15:02:49;;;;;;;;;;;5.40;99.90;;;;;;5117393;27;19998;-45
2023/01/16 15:05:21;;;;;;;;;;;5.30;99.90;;;;;;5116205;27;19912;-45
2023/01/16 15:07:46;;;;;;;;;;;5.30;99.90;;;;;;5117399;27;19994;-46
2023/01/16 15:10:35;;;;;;;;;;;5.30;99.90;;;;;;5121722;27;20390;-45
2023/01/16 15:13:17;;;;;;;;;;;5.30;99.90;;;;;;5112969;28;19914;-45
2023/01/16 15:15:44;;;;;;;;;;;5.30;99.90;;;;;;5112406;28;20369;-44
2023/01/16 15:23:41;;;;;;;;;;;5.30;99.90;;;;;;5113211;28;20361;-44
2023/01/16 15:26:12;;;;;;;;;;;5.30;99.90;;;;;;5112933;28;19907;-45
2023/01/16 15:28:43;;;;;;;;;;;5.30;99.90;;;;;;5111633;28;19908;-46
2023/01/16 15:31:09;;;;;;;;;;;5.30;99.90;;;;;;5115541;27;19961;-45
2023/01/16 15:33:51;;;;;;;;;;;5.30;99.90;;;;;;5132683;27;19916;-46
2023/01/16 15:36:22;;;;;;;;;;;5.30;99.90;;;;;;5131992;27;19908;-46
2023/01/16 15:38:53;;;;;;;;;;;5.30;99.90;;;;;;5132411;27;19912;-45
2023/01/16 15:46:32;;;;;;;;;;;5.30;99.90;;;;;;5132867;27;19911;-46
2023/01/16 15:47:09;;;;;;;;;;;5.30;99.90;;;;;;5133088;28;19915;-46
2023/01/16 15:49:56;;;;;;;;;;;5.30;99.90;;;;;;5131828;28;20324;-44
2023/01/16 15:52:26;;;;;;;;;;;5.30;99.90;;;;;;5132926;28;19907;-45
2023/01/16 15:54:51;;;;;;;;;;;5.30;99.90;;;;;;5132465;28;19943;-44
2023/01/16 15:57:17;;;;;;;;;;;5.20;99.90;;;;;;5132113;28;20277;-45
2023/01/16 15:59:53;;;;;;;;;;;5.20;99.90;;;;;;5133299;27;19995;-46
2023/01/16 16:02:20;;;;;;;;;;;5.20;99.90;;;;;;5134639;27;19954;-44
2023/01/16 16:04:48;;;;;;;;;;;5.20;99.90;;;;;;5140063;27;19907;-45
2023/01/16 16:07:14;;;;;;;;;;;5.20;99.90;;;;;;5142448;27;19914;-44
2023/01/16 16:09:41;;;;;;;;;;;5.20;99.90;;;;;;5131442;27;19911;-44
2023/01/16 16:12:08;;;;;;;;;;;5.20;99.90;;;;;;5130226;27;19956;-46
2023/01/16 16:20:22;;;;;;;;;;;5.10;99.90;;;;;;5140731;27;19934;-44